sensor_id;sensor_type;location;lat;lon;timestamp;P1;durP1;ratioP1;P2;durP2;ratioP2
22223;SDS011;11281;52.194;21.006;2023-07-02T00:02:08;13.38;;;8.55;;
22223;SDS011;11281;52.194;21.006;2023-07-02T00:06:30;17.77;;;9.43;;
22223;SDS011;11281;52.194;21.006;2023-07-02T00:10:53;15.57;;;9.27;;
22223;SDS011;11281;52.194;21.006;2023-07-02T00:15:15;17.25;;;8.52;;
22223;SDS011;11281;52.194;21.006;2023-07-02T00:19:36;16.98;;;9.70;;
22223;SDS011;11281;52.194;21.006;2023-07-02T00:24:01;17.98;;;9.65;;
22223;SDS011;11281;52.194;21.006;2023-07-02T00:28:22;20.63;;;9.48;;
22223;SDS011;11281;52.194;21.006;2023-07-02T00:32:44;20.15;;;8.65;;
22223;SDS011;11281;52.194;21.006;2023-07-02T00:37:06;18.63;;;9.27;;
22223;SDS011;11281;52.194;21.006;2023-07-02T00:41:28;16.30;;;9.68;;
22223;SDS011;11281;52.194;21.006;2023-07-02T00:45:49;16.35;;;9.15;;
22223;SDS011;11281;52.194;21.006;2023-07-02T00:50:11;17.15;;;9.63;;
22223;SDS011;11281;52.194;21.006;2023-07-02T00:54:33;19.75;;;10.15;;
22223;SDS011;11281;52.194;21.006;2023-07-02T00:58:55;16.67;;;9.02;;
22223;SDS011;11281;52.194;21.006;2023-07-02T01:03:19;19.58;;;9.90;;
22223;SDS011;11281;52.194;21.006;2023-07-02T01:07:41;23.70;;;11.18;;
22223;SDS011;11281;52.194;21.006;2023-07-02T01:12:03;21.40;;;10.80;;
22223;SDS011;11281;52.194;21.006;2023-07-02T01:16:29;18.67;;;9.88;;
22223;SDS011;11281;52.194;21.006;2023-07-02T01:20:53;20.15;;;10.25;;
22223;SDS011;11281;52.194;21.006;2023-07-02T01:25:15;23.85;;;12.05;;
22223;SDS011;11281;52.194;21.006;2023-07-02T01:29:37;23.65;;;11.85;;
22223;SDS011;11281;52.194;21.006;2023-07-02T01:33:59;22.88;;;11.38;;
22223;SDS011;11281;52.194;21.006;2023-07-02T01:38:21;21.10;;;11.13;;
22223;SDS011;11281;52.194;21.006;2023-07-02T01:42:43;27.27;;;11.23;;
22223;SDS011;11281;52.194;21.006;2023-07-02T01:47:05;22.63;;;11.68;;
22223;SDS011;11281;52.194;21.006;2023-07-02T01:51:27;19.08;;;10.48;;
22223;SDS011;11281;52.194;21.006;2023-07-02T01:55:48;20.58;;;11.20;;
22223;SDS011;11281;52.194;21.006;2023-07-02T02:00:11;24.98;;;11.80;;
22223;SDS011;11281;52.194;21.006;2023-07-02T02:04:33;20.63;;;10.93;;
22223;SDS011;11281;52.194;21.006;2023-07-02T02:08:55;22.17;;;11.98;;
22223;SDS011;11281;52.194;21.006;2023-07-02T02:13:17;24.95;;;10.98;;
22223;SDS011;11281;52.194;21.006;2023-07-02T02:17:38;21.67;;;10.50;;
22223;SDS011;11281;52.194;21.006;2023-07-02T02:22:00;21.30;;;11.73;;
22223;SDS011;11281;52.194;21.006;2023-07-02T02:26:22;19.50;;;11.38;;
22223;SDS011;11281;52.194;21.006;2023-07-02T02:30:46;22.08;;;11.32;;
22223;SDS011;11281;52.194;21.006;2023-07-02T02:35:08;22.40;;;11.68;;
22223;SDS011;11281;52.194;21.006;2023-07-02T02:39:29;22.55;;;11.30;;
22223;SDS011;11281;52.194;21.006;2023-07-02T02:43:51;22.92;;;11.43;;
22223;SDS011;11281;52.194;21.006;2023-07-02T02:48:13;25.98;;;11.82;;
22223;SDS011;11281;52.194;21.006;2023-07-02T02:52:34;22.02;;;11.43;;
22223;SDS011;11281;52.194;21.006;2023-07-02T02:56:56;24.25;;;11.02;;
22223;SDS011;11281;52.194;21.006;2023-07-02T03:01:18;22.35;;;10.90;;
22223;SDS011;11281;52.194;21.006;2023-07-02T03:05:40;21.27;;;10.68;;
22223;SDS011;11281;52.194;21.006;2023-07-02T03:10:01;22.58;;;11.45;;
22223;SDS011;11281;52.194;21.006;2023-07-02T03:14:23;25.30;;;11.52;;
22223;SDS011;11281;52.194;21.006;2023-07-02T03:18:45;19.75;;;10.38;;
22223;SDS011;11281;52.194;21.006;2023-07-02T03:23:07;20.05;;;11.15;;
22223;SDS011;11281;52.194;21.006;2023-07-02T03:27:29;21.30;;;11.23;;
22223;SDS011;11281;52.194;21.006;2023-07-02T03:31:50;22.30;;;11.45;;
22223;SDS011;11281;52.194;21.006;2023-07-02T03:36:12;19.15;;;10.98;;
22223;SDS011;11281;52.194;21.006;2023-07-02T03:40:34;22.98;;;10.95;;
22223;SDS011;11281;52.194;21.006;2023-07-02T03:44:56;20.27;;;11.25;;
22223;SDS011;11281;52.194;21.006;2023-07-02T03:49:17;19.80;;;10.68;;
22223;SDS011;11281;52.194;21.006;2023-07-02T03:53:39;20.63;;;11.05;;
22223;SDS011;11281;52.194;21.006;2023-07-02T03:58:04;19.38;;;11.07;;
22223;SDS011;11281;52.194;21.006;2023-07-02T04:02:26;19.75;;;10.88;;
22223;SDS011;11281;52.194;21.006;2023-07-02T04:06:48;18.23;;;10.75;;
22223;SDS011;11281;52.194;21.006;2023-07-02T04:11:10;18.33;;;9.63;;
22223;SDS011;11281;52.194;21.006;2023-07-02T04:15:32;19.58;;;9.80;;
22223;SDS011;11281;52.194;21.006;2023-07-02T04:19:55;17.45;;;9.93;;
22223;SDS011;11281;52.194;21.006;2023-07-02T04:24:16;19.23;;;10.85;;
22223;SDS011;11281;52.194;21.006;2023-07-02T04:28:38;18.30;;;10.50;;
22223;SDS011;11281;52.194;21.006;2023-07-02T04:33:00;18.30;;;9.35;;
22223;SDS011;11281;52.194;21.006;2023-07-02T04:37:22;16.20;;;9.88;;
22223;SDS011;11281;52.194;21.006;2023-07-02T04:41:44;15.60;;;8.90;;
22223;SDS011;11281;52.194;21.006;2023-07-02T04:46:05;18.85;;;9.45;;
22223;SDS011;11281;52.194;21.006;2023-07-02T04:50:28;16.63;;;9.20;;
22223;SDS011;11281;52.194;21.006;2023-07-02T04:54:50;15.30;;;10.15;;
22223;SDS011;11281;52.194;21.006;2023-07-02T04:59:11;18.00;;;8.93;;
22223;SDS011;11281;52.194;21.006;2023-07-02T05:03:33;17.77;;;9.60;;
22223;SDS011;11281;52.194;21.006;2023-07-02T05:07:55;17.02;;;9.48;;
22223;SDS011;11281;52.194;21.006;2023-07-02T05:12:17;20.17;;;9.55;;
22223;SDS011;11281;52.194;21.006;2023-07-02T05:16:39;17.35;;;8.77;;
22223;SDS011;11281;52.194;21.006;2023-07-02T05:21:01;17.45;;;9.20;;
22223;SDS011;11281;52.194;21.006;2023-07-02T05:25:23;14.23;;;8.70;;
22223;SDS011;11281;52.194;21.006;2023-07-02T05:29:44;15.40;;;8.80;;
22223;SDS011;11281;52.194;21.006;2023-07-02T05:34:06;16.80;;;9.20;;
22223;SDS011;11281;52.194;21.006;2023-07-02T05:38:28;14.45;;;8.35;;
22223;SDS011;11281;52.194;21.006;2023-07-02T05:42:50;13.45;;;8.73;;
22223;SDS011;11281;52.194;21.006;2023-07-02T05:47:11;14.45;;;8.77;;
22223;SDS011;11281;52.194;21.006;2023-07-02T05:51:33;11.93;;;7.38;;
22223;SDS011;11281;52.194;21.006;2023-07-02T05:55:55;15.40;;;7.47;;
22223;SDS011;11281;52.194;21.006;2023-07-02T06:00:17;11.98;;;7.10;;
22223;SDS011;11281;52.194;21.006;2023-07-02T06:04:38;14.15;;;7.63;;
22223;SDS011;11281;52.194;21.006;2023-07-02T06:09:00;11.43;;;6.63;;
22223;SDS011;11281;52.194;21.006;2023-07-02T06:13:22;11.32;;;7.45;;
22223;SDS011;11281;52.194;21.006;2023-07-02T06:17:43;13.00;;;7.03;;
22223;SDS011;11281;52.194;21.006;2023-07-02T06:22:05;10.23;;;6.88;;
22223;SDS011;11281;52.194;21.006;2023-07-02T06:26:27;10.90;;;6.40;;
22223;SDS011;11281;52.194;21.006;2023-07-02T06:30:49;15.75;;;7.13;;
22223;SDS011;11281;52.194;21.006;2023-07-02T06:35:11;10.77;;;6.72;;
22223;SDS011;11281;52.194;21.006;2023-07-02T06:39:32;10.05;;;6.32;;
22223;SDS011;11281;52.194;21.006;2023-07-02T06:43:54;10.95;;;5.82;;
22223;SDS011;11281;52.194;21.006;2023-07-02T06:48:16;10.93;;;5.85;;
22223;SDS011;11281;52.194;21.006;2023-07-02T06:52:38;10.00;;;5.43;;
22223;SDS011;11281;52.194;21.006;2023-07-02T06:57:00;8.02;;;5.07;;
22223;SDS011;11281;52.194;21.006;2023-07-02T07:01:22;9.23;;;4.85;;
22223;SDS011;11281;52.194;21.006;2023-07-02T07:05:44;7.38;;;5.13;;
22223;SDS011;11281;52.194;21.006;2023-07-02T07:10:06;6.25;;;4.38;;
22223;SDS011;11281;52.194;21.006;2023-07-02T07:14:28;10.27;;;4.20;;
22223;SDS011;11281;52.194;21.006;2023-07-02T07:18:50;11.25;;;4.57;;
22223;SDS011;11281;52.194;21.006;2023-07-02T07:23:12;5.68;;;4.05;;
22223;SDS011;11281;52.194;21.006;2023-07-02T07:27:33;6.68;;;4.22;;
22223;SDS011;11281;52.194;21.006;2023-07-02T07:31:55;10.10;;;4.22;;
22223;SDS011;11281;52.194;21.006;2023-07-02T07:36:17;6.38;;;3.90;;
22223;SDS011;11281;52.194;21.006;2023-07-02T07:40:40;5.18;;;3.95;;
22223;SDS011;11281;52.194;21.006;2023-07-02T07:45:03;5.57;;;3.33;;
22223;SDS011;11281;52.194;21.006;2023-07-02T07:49:25;6.18;;;3.45;;
22223;SDS011;11281;52.194;21.006;2023-07-02T07:53:47;5.00;;;3.90;;
22223;SDS011;11281;52.194;21.006;2023-07-02T07:58:08;6.55;;;4.40;;
22223;SDS011;11281;52.194;21.006;2023-07-02T08:02:30;9.75;;;4.57;;
22223;SDS011;11281;52.194;21.006;2023-07-02T08:06:52;6.22;;;4.03;;
22223;SDS011;11281;52.194;21.006;2023-07-02T08:11:15;8.35;;;4.20;;
22223;SDS011;11281;52.194;21.006;2023-07-02T08:15:37;7.50;;;4.75;;
22223;SDS011;11281;52.194;21.006;2023-07-02T08:19:59;11.80;;;4.30;;
22223;SDS011;11281;52.194;21.006;2023-07-02T08:24:21;6.53;;;4.30;;
22223;SDS011;11281;52.194;21.006;2023-07-02T08:28:42;6.90;;;4.22;;
22223;SDS011;11281;52.194;21.006;2023-07-02T08:33:04;6.25;;;3.30;;
22223;SDS011;11281;52.194;21.006;2023-07-02T08:37:26;6.38;;;3.95;;
22223;SDS011;11281;52.194;21.006;2023-07-02T08:41:48;4.78;;;4.18;;
22223;SDS011;11281;52.194;21.006;2023-07-02T08:46:10;6.97;;;3.70;;
22223;SDS011;11281;52.194;21.006;2023-07-02T08:50:32;6.25;;;3.90;;
22223;SDS011;11281;52.194;21.006;2023-07-02T08:54:54;6.90;;;4.43;;
22223;SDS011;11281;52.194;21.006;2023-07-02T08:59:16;4.97;;;4.18;;
22223;SDS011;11281;52.194;21.006;2023-07-02T09:03:38;6.15;;;4.35;;
22223;SDS011;11281;52.194;21.006;2023-07-02T09:08:01;5.78;;;3.58;;
22223;SDS011;11281;52.194;21.006;2023-07-02T09:16:48;4.55;;;3.60;;
22223;SDS011;11281;52.194;21.006;2023-07-02T09:21:10;5.80;;;4.18;;
22223;SDS011;11281;52.194;21.006;2023-07-02T09:25:38;6.63;;;3.88;;
22223;SDS011;11281;52.194;21.006;2023-07-02T09:30:11;6.43;;;3.95;;
22223;SDS011;11281;52.194;21.006;2023-07-02T09:34:37;4.30;;;3.30;;
22223;SDS011;11281;52.194;21.006;2023-07-02T09:39:01;4.90;;;2.90;;
22223;SDS011;11281;52.194;21.006;2023-07-02T09:43:23;5.32;;;3.00;;
22223;SDS011;11281;52.194;21.006;2023-07-02T09:47:47;4.93;;;3.30;;
22223;SDS011;11281;52.194;21.006;2023-07-02T09:52:13;4.15;;;3.30;;
22223;SDS011;11281;52.194;21.006;2023-07-02T09:56:35;3.38;;;2.83;;
22223;SDS011;11281;52.194;21.006;2023-07-02T10:00:57;3.55;;;2.83;;
22223;SDS011;11281;52.194;21.006;2023-07-02T10:05:31;5.15;;;2.53;;
22223;SDS011;11281;52.194;21.006;2023-07-02T10:09:54;3.30;;;2.72;;
22223;SDS011;11281;52.194;21.006;2023-07-02T10:14:16;1.83;;;1.60;;
22223;SDS011;11281;52.194;21.006;2023-07-02T10:18:38;1.92;;;1.38;;
22223;SDS011;11281;52.194;21.006;2023-07-02T10:23:00;1.85;;;1.50;;
22223;SDS011;11281;52.194;21.006;2023-07-02T10:27:32;2.40;;;1.58;;
22223;SDS011;11281;52.194;21.006;2023-07-02T10:31:57;2.67;;;1.45;;
22223;SDS011;11281;52.194;21.006;2023-07-02T10:36:19;3.58;;;1.50;;
22223;SDS011;11281;52.194;21.006;2023-07-02T10:40:45;2.78;;;1.30;;
22223;SDS011;11281;52.194;21.006;2023-07-02T10:45:07;1.25;;;1.10;;
22223;SDS011;11281;52.194;21.006;2023-07-02T10:49:32;1.38;;;1.27;;
22223;SDS011;11281;52.194;21.006;2023-07-02T10:53:57;2.00;;;1.38;;
22223;SDS011;11281;52.194;21.006;2023-07-02T10:58:25;1.65;;;1.35;;
22223;SDS011;11281;52.194;21.006;2023-07-02T11:02:48;2.08;;;1.50;;
22223;SDS011;11281;52.194;21.006;2023-07-02T11:07:10;1.45;;;1.35;;
22223;SDS011;11281;52.194;21.006;2023-07-02T11:11:35;3.20;;;1.30;;
22223;SDS011;11281;52.194;21.006;2023-07-02T11:15:56;3.03;;;1.30;;
22223;SDS011;11281;52.194;21.006;2023-07-02T11:20:18;2.25;;;1.60;;
22223;SDS011;11281;52.194;21.006;2023-07-02T11:24:40;1.33;;;1.20;;
22223;SDS011;11281;52.194;21.006;2023-07-02T11:29:01;1.40;;;1.30;;
22223;SDS011;11281;52.194;21.006;2023-07-02T11:33:36;1.38;;;1.27;;
22223;SDS011;11281;52.194;21.006;2023-07-02T11:37:59;1.50;;;1.40;;
22223;SDS011;11281;52.194;21.006;2023-07-02T11:42:21;1.27;;;1.17;;
22223;SDS011;11281;52.194;21.006;2023-07-02T11:46:42;2.08;;;1.48;;
22223;SDS011;11281;52.194;21.006;2023-07-02T11:51:05;1.88;;;1.42;;
22223;SDS011;11281;52.194;21.006;2023-07-02T11:55:26;1.70;;;1.60;;
22223;SDS011;11281;52.194;21.006;2023-07-02T11:59:48;1.95;;;1.27;;
22223;SDS011;11281;52.194;21.006;2023-07-02T12:04:10;1.58;;;1.30;;
22223;SDS011;11281;52.194;21.006;2023-07-02T12:08:33;1.77;;;1.40;;
22223;SDS011;11281;52.194;21.006;2023-07-02T12:12:54;1.30;;;1.20;;
22223;SDS011;11281;52.194;21.006;2023-07-02T12:17:16;1.88;;;1.52;;
22223;SDS011;11281;52.194;21.006;2023-07-02T12:21:38;2.53;;;1.70;;
22223;SDS011;11281;52.194;21.006;2023-07-02T12:25:59;1.70;;;1.40;;
22223;SDS011;11281;52.194;21.006;2023-07-02T12:30:21;2.08;;;1.30;;
22223;SDS011;11281;52.194;21.006;2023-07-02T12:34:43;1.67;;;1.33;;
22223;SDS011;11281;52.194;21.006;2023-07-02T12:39:05;1.58;;;1.40;;
22223;SDS011;11281;52.194;21.006;2023-07-02T12:43:27;3.65;;;1.85;;
22223;SDS011;11281;52.194;21.006;2023-07-02T12:47:48;1.88;;;1.50;;
22223;SDS011;11281;52.194;21.006;2023-07-02T12:52:10;1.75;;;1.63;;
22223;SDS011;11281;52.194;21.006;2023-07-02T12:56:32;2.55;;;1.40;;
22223;SDS011;11281;52.194;21.006;2023-07-02T13:00:53;1.70;;;1.52;;
22223;SDS011;11281;52.194;21.006;2023-07-02T13:05:16;1.73;;;1.42;;
22223;SDS011;11281;52.194;21.006;2023-07-02T13:09:37;1.85;;;1.48;;
22223;SDS011;11281;52.194;21.006;2023-07-02T13:13:59;1.98;;;1.58;;
22223;SDS011;11281;52.194;21.006;2023-07-02T13:18:21;4.75;;;1.45;;
22223;SDS011;11281;52.194;21.006;2023-07-02T13:22:43;1.20;;;1.10;;
22223;SDS011;11281;52.194;21.006;2023-07-02T13:27:05;3.90;;;1.42;;
22223;SDS011;11281;52.194;21.006;2023-07-02T13:31:34;4.18;;;1.52;;
22223;SDS011;11281;52.194;21.006;2023-07-02T13:35:56;2.13;;;1.42;;
22223;SDS011;11281;52.194;21.006;2023-07-02T13:40:18;1.30;;;1.05;;
22223;SDS011;11281;52.194;21.006;2023-07-02T13:44:40;0.90;;;0.90;;
22223;SDS011;11281;52.194;21.006;2023-07-02T13:49:03;1.45;;;1.30;;
22223;SDS011;11281;52.194;21.006;2023-07-02T13:53:25;1.42;;;1.20;;
22223;SDS011;11281;52.194;21.006;2023-07-02T13:57:47;1.42;;;1.27;;
22223;SDS011;11281;52.194;21.006;2023-07-02T14:02:08;1.60;;;1.38;;
22223;SDS011;11281;52.194;21.006;2023-07-02T14:06:30;1.33;;;1.23;;
22223;SDS011;11281;52.194;21.006;2023-07-02T14:10:52;1.73;;;1.52;;
22223;SDS011;11281;52.194;21.006;2023-07-02T14:15:14;3.38;;;1.60;;
22223;SDS011;11281;52.194;21.006;2023-07-02T14:19:36;2.15;;;1.42;;
22223;SDS011;11281;52.194;21.006;2023-07-02T14:23:58;1.77;;;1.33;;
22223;SDS011;11281;52.194;21.006;2023-07-02T14:28:20;1.77;;;1.40;;
22223;SDS011;11281;52.194;21.006;2023-07-02T14:32:41;1.63;;;1.42;;
22223;SDS011;11281;52.194;21.006;2023-07-02T14:37:05;2.50;;;1.25;;
22223;SDS011;11281;52.194;21.006;2023-07-02T14:41:27;1.55;;;1.42;;
22223;SDS011;11281;52.194;21.006;2023-07-02T14:45:51;1.75;;;1.45;;
22223;SDS011;11281;52.194;21.006;2023-07-02T14:50:14;1.60;;;1.35;;
22223;SDS011;11281;52.194;21.006;2023-07-02T14:54:36;2.83;;;1.10;;
22223;SDS011;11281;52.194;21.006;2023-07-02T14:58:58;2.78;;;1.40;;
22223;SDS011;11281;52.194;21.006;2023-07-02T15:03:20;1.77;;;1.30;;
22223;SDS011;11281;52.194;21.006;2023-07-02T15:07:44;1.10;;;1.00;;
22223;SDS011;11281;52.194;21.006;2023-07-02T15:12:05;1.70;;;1.20;;
22223;SDS011;11281;52.194;21.006;2023-07-02T15:16:27;3.13;;;1.40;;
22223;SDS011;11281;52.194;21.006;2023-07-02T15:20:50;7.53;;;1.58;;
22223;SDS011;11281;52.194;21.006;2023-07-02T15:25:14;2.45;;;1.40;;
22223;SDS011;11281;52.194;21.006;2023-07-02T15:29:35;1.42;;;1.33;;
22223;SDS011;11281;52.194;21.006;2023-07-02T15:33:57;1.92;;;1.23;;
22223;SDS011;11281;52.194;21.006;2023-07-02T15:38:19;1.35;;;1.15;;
22223;SDS011;11281;52.194;21.006;2023-07-02T15:42:41;1.40;;;1.25;;
22223;SDS011;11281;52.194;21.006;2023-07-02T15:47:03;2.00;;;1.48;;
22223;SDS011;11281;52.194;21.006;2023-07-02T15:51:25;1.65;;;1.40;;
22223;SDS011;11281;52.194;21.006;2023-07-02T15:55:48;1.80;;;0.93;;
22223;SDS011;11281;52.194;21.006;2023-07-02T16:00:15;1.50;;;1.30;;
22223;SDS011;11281;52.194;21.006;2023-07-02T16:04:37;1.98;;;1.50;;
22223;SDS011;11281;52.194;21.006;2023-07-02T16:09:01;2.35;;;1.52;;
22223;SDS011;11281;52.194;21.006;2023-07-02T16:13:24;1.63;;;1.35;;
22223;SDS011;11281;52.194;21.006;2023-07-02T16:17:47;1.52;;;1.33;;
22223;SDS011;11281;52.194;21.006;2023-07-02T16:22:09;1.77;;;1.33;;
22223;SDS011;11281;52.194;21.006;2023-07-02T16:26:31;5.45;;;2.20;;
22223;SDS011;11281;52.194;21.006;2023-07-02T16:30:53;2.30;;;1.80;;
22223;SDS011;11281;52.194;21.006;2023-07-02T16:35:15;2.55;;;1.52;;
22223;SDS011;11281;52.194;21.006;2023-07-02T16:39:36;5.60;;;3.97;;
22223;SDS011;11281;52.194;21.006;2023-07-02T16:43:58;4.32;;;2.33;;
22223;SDS011;11281;52.194;21.006;2023-07-02T16:48:21;2.50;;;1.92;;
22223;SDS011;11281;52.194;21.006;2023-07-02T16:52:42;4.00;;;1.40;;
22223;SDS011;11281;52.194;21.006;2023-07-02T16:57:04;2.50;;;1.15;;
22223;SDS011;11281;52.194;21.006;2023-07-02T17:01:26;1.98;;;1.38;;
22223;SDS011;11281;52.194;21.006;2023-07-02T17:05:48;2.72;;;1.73;;
22223;SDS011;11281;52.194;21.006;2023-07-02T17:10:10;2.05;;;1.77;;
22223;SDS011;11281;52.194;21.006;2023-07-02T17:14:33;1.98;;;1.40;;
22223;SDS011;11281;52.194;21.006;2023-07-02T17:18:58;1.58;;;1.40;;
22223;SDS011;11281;52.194;21.006;2023-07-02T17:23:20;2.70;;;1.30;;
22223;SDS011;11281;52.194;21.006;2023-07-02T17:27:43;2.05;;;1.42;;
22223;SDS011;11281;52.194;21.006;2023-07-02T17:32:05;2.42;;;1.38;;
22223;SDS011;11281;52.194;21.006;2023-07-02T17:36:29;3.10;;;1.90;;
22223;SDS011;11281;52.194;21.006;2023-07-02T17:40:51;3.55;;;2.20;;
22223;SDS011;11281;52.194;21.006;2023-07-02T17:45:13;2.22;;;1.60;;
22223;SDS011;11281;52.194;21.006;2023-07-02T17:49:36;3.80;;;1.40;;
22223;SDS011;11281;52.194;21.006;2023-07-02T17:54:01;2.35;;;1.20;;
22223;SDS011;11281;52.194;21.006;2023-07-02T17:58:29;2.25;;;1.45;;
22223;SDS011;11281;52.194;21.006;2023-07-02T18:02:50;2.35;;;1.58;;
22223;SDS011;11281;52.194;21.006;2023-07-02T18:07:13;3.35;;;1.58;;
22223;SDS011;11281;52.194;21.006;2023-07-02T18:11:37;3.72;;;1.50;;
22223;SDS011;11281;52.194;21.006;2023-07-02T18:15:59;2.53;;;1.83;;
22223;SDS011;11281;52.194;21.006;2023-07-02T18:20:21;3.38;;;1.80;;
22223;SDS011;11281;52.194;21.006;2023-07-02T18:24:43;2.22;;;1.50;;
22223;SDS011;11281;52.194;21.006;2023-07-02T18:29:05;2.58;;;1.83;;
22223;SDS011;11281;52.194;21.006;2023-07-02T18:33:28;6.97;;;2.08;;
22223;SDS011;11281;52.194;21.006;2023-07-02T18:37:51;1.75;;;1.60;;
22223;SDS011;11281;52.194;21.006;2023-07-02T18:42:13;2.95;;;1.77;;
22223;SDS011;11281;52.194;21.006;2023-07-02T18:46:35;2.28;;;1.73;;
22223;SDS011;11281;52.194;21.006;2023-07-02T18:50:57;2.88;;;1.58;;
22223;SDS011;11281;52.194;21.006;2023-07-02T18:55:19;2.05;;;1.80;;
22223;SDS011;11281;52.194;21.006;2023-07-02T18:59:44;2.33;;;1.70;;
22223;SDS011;11281;52.194;21.006;2023-07-02T19:04:08;2.58;;;1.80;;
22223;SDS011;11281;52.194;21.006;2023-07-02T19:08:30;2.03;;;1.58;;
22223;SDS011;11281;52.194;21.006;2023-07-02T19:12:52;4.65;;;1.85;;
22223;SDS011;11281;52.194;21.006;2023-07-02T19:17:14;3.42;;;1.75;;
22223;SDS011;11281;52.194;21.006;2023-07-02T19:21:37;2.30;;;1.75;;
22223;SDS011;11281;52.194;21.006;2023-07-02T19:25:58;2.70;;;1.83;;
22223;SDS011;11281;52.194;21.006;2023-07-02T19:30:20;2.28;;;1.73;;
22223;SDS011;11281;52.194;21.006;2023-07-02T19:34:42;2.45;;;1.67;;
22223;SDS011;11281;52.194;21.006;2023-07-02T19:39:06;3.05;;;2.03;;
22223;SDS011;11281;52.194;21.006;2023-07-02T19:43:28;1.95;;;1.58;;
22223;SDS011;11281;52.194;21.006;2023-07-02T19:47:50;4.72;;;2.03;;
22223;SDS011;11281;52.194;21.006;2023-07-02T19:52:12;2.10;;;1.52;;
22223;SDS011;11281;52.194;21.006;2023-07-02T19:56:34;3.28;;;1.80;;
22223;SDS011;11281;52.194;21.006;2023-07-02T20:00:56;3.78;;;2.28;;
22223;SDS011;11281;52.194;21.006;2023-07-02T20:05:18;7.90;;;2.20;;
22223;SDS011;11281;52.194;21.006;2023-07-02T20:09:40;6.18;;;2.35;;
22223;SDS011;11281;52.194;21.006;2023-07-02T20:14:03;4.90;;;2.25;;
22223;SDS011;11281;52.194;21.006;2023-07-02T20:18:25;3.03;;;2.10;;
22223;SDS011;11281;52.194;21.006;2023-07-02T20:22:47;4.55;;;2.67;;
22223;SDS011;11281;52.194;21.006;2023-07-02T20:27:13;2.85;;;2.05;;
22223;SDS011;11281;52.194;21.006;2023-07-02T20:31:39;4.32;;;2.42;;
22223;SDS011;11281;52.194;21.006;2023-07-02T20:36:00;2.50;;;1.88;;
22223;SDS011;11281;52.194;21.006;2023-07-02T20:40:26;6.32;;;2.33;;
22223;SDS011;11281;52.194;21.006;2023-07-02T20:44:48;4.03;;;2.65;;
22223;SDS011;11281;52.194;21.006;2023-07-02T20:49:11;5.00;;;2.30;;
22223;SDS011;11281;52.194;21.006;2023-07-02T20:53:35;5.25;;;3.08;;
22223;SDS011;11281;52.194;21.006;2023-07-02T20:57:57;2.60;;;2.28;;
22223;SDS011;11281;52.194;21.006;2023-07-02T21:02:19;3.95;;;2.55;;
22223;SDS011;11281;52.194;21.006;2023-07-02T21:06:41;6.97;;;2.50;;
22223;SDS011;11281;52.194;21.006;2023-07-02T21:11:03;3.72;;;2.35;;
22223;SDS011;11281;52.194;21.006;2023-07-02T21:15:26;3.22;;;2.58;;
22223;SDS011;11281;52.194;21.006;2023-07-02T21:19:48;3.92;;;2.58;;
22223;SDS011;11281;52.194;21.006;2023-07-02T21:24:10;4.20;;;3.20;;
22223;SDS011;11281;52.194;21.006;2023-07-02T21:28:32;7.88;;;3.83;;
22223;SDS011;11281;52.194;21.006;2023-07-02T21:32:54;4.57;;;3.00;;
22223;SDS011;11281;52.194;21.006;2023-07-02T21:37:16;7.38;;;3.47;;
22223;SDS011;11281;52.194;21.006;2023-07-02T21:41:38;4.97;;;2.67;;
22223;SDS011;11281;52.194;21.006;2023-07-02T21:46:01;5.28;;;3.17;;
22223;SDS011;11281;52.194;21.006;2023-07-02T21:50:24;4.18;;;2.97;;
22223;SDS011;11281;52.194;21.006;2023-07-02T21:54:46;5.55;;;3.05;;
22223;SDS011;11281;52.194;21.006;2023-07-02T21:59:08;5.60;;;3.25;;
22223;SDS011;11281;52.194;21.006;2023-07-02T22:03:31;4.50;;;2.83;;
22223;SDS011;11281;52.194;21.006;2023-07-02T22:07:52;5.05;;;3.00;;
22223;SDS011;11281;52.194;21.006;2023-07-02T22:12:14;6.68;;;3.47;;
22223;SDS011;11281;52.194;21.006;2023-07-02T22:16:36;5.55;;;2.65;;
22223;SDS011;11281;52.194;21.006;2023-07-02T22:20:58;6.78;;;3.30;;
22223;SDS011;11281;52.194;21.006;2023-07-02T22:25:21;7.13;;;3.47;;
22223;SDS011;11281;52.194;21.006;2023-07-02T22:29:43;6.00;;;2.80;;
22223;SDS011;11281;52.194;21.006;2023-07-02T22:34:04;7.30;;;3.50;;
22223;SDS011;11281;52.194;21.006;2023-07-02T22:38:26;6.65;;;3.47;;
22223;SDS011;11281;52.194;21.006;2023-07-02T22:42:48;5.95;;;3.47;;
22223;SDS011;11281;52.194;21.006;2023-07-02T22:47:10;7.75;;;3.53;;
22223;SDS011;11281;52.194;21.006;2023-07-02T22:51:32;6.55;;;3.20;;
22223;SDS011;11281;52.194;21.006;2023-07-02T22:55:54;6.13;;;3.58;;
22223;SDS011;11281;52.194;21.006;2023-07-02T23:00:16;7.25;;;3.40;;
22223;SDS011;11281;52.194;21.006;2023-07-02T23:04:40;4.00;;;3.10;;
22223;SDS011;11281;52.194;21.006;2023-07-02T23:09:01;6.45;;;3.25;;
22223;SDS011;11281;52.194;21.006;2023-07-02T23:13:23;5.80;;;3.13;;
22223;SDS011;11281;52.194;21.006;2023-07-02T23:17:46;7.05;;;3.85;;
22223;SDS011;11281;52.194;21.006;2023-07-02T23:22:10;5.32;;;3.45;;
22223;SDS011;11281;52.194;21.006;2023-07-02T23:26:34;6.47;;;3.05;;
22223;SDS011;11281;52.194;21.006;2023-07-02T23:30:58;5.25;;;3.25;;
22223;SDS011;11281;52.194;21.006;2023-07-02T23:35:20;4.60;;;3.58;;
22223;SDS011;11281;52.194;21.006;2023-07-02T23:39:42;4.55;;;3.38;;
22223;SDS011;11281;52.194;21.006;2023-07-02T23:44:07;6.43;;;4.13;;
22223;SDS011;11281;52.194;21.006;2023-07-02T23:48:30;8.38;;;3.80;;
22223;SDS011;11281;52.194;21.006;2023-07-02T23:52:52;4.18;;;3.42;;
22223;SDS011;11281;52.194;21.006;2023-07-02T23:57:14;5.75;;;3.65;;
